Time;durP1;ratioP1;P1;durP2;ratioP2;P2;SDS_P1;SDS_P2;PMS_P1;PMS_P2;Temp;Humidity;BMP_temperature;BMP_pressure;BME280_temperature;BME280_humidity;BME280_pressure;Samples;Min_cycle;Max_cycle;Signal;HPM_P1;HPM_P2
2023/12/14 00:00:45;;;;;;;8.05;4.97;;;;;;;5.81;100.00;99758.31;5180790;28;20068;-77
2023/12/14 00:03:15;;;;;;;8.43;4.57;;;;;;;5.87;100.00;99753.78;5187134;28;20030;-77
2023/12/14 00:05:46;;;;;;;9.57;4.55;;;;;;;5.76;100.00;99757.56;5186494;28;20045;-77
2023/12/14 00:08:16;;;;;;;7.57;4.13;;;;;;;5.76;100.00;99754.97;5174757;28;20641;-76
2023/12/14 00:10:46;;;;;;;11.20;5.05;;;;;;;5.70;100.00;99773.28;5183892;28;20132;-74
2023/12/14 00:13:17;;;;;;;10.27;4.70;;;;;;;5.75;100.00;99763.63;5188875;28;20529;-77
2023/12/14 00:15:49;;;;;;;7.95;4.50;;;;;;;5.72;100.00;99764.56;5186459;28;20029;-77
2023/12/14 00:18:19;;;;;;;10.45;4.97;;;;;;;5.63;100.00;99776.94;5194300;28;20499;-77
2023/12/14 00:20:50;;;;;;;9.23;4.20;;;;;;;5.51;100.00;99779.88;5184139;28;20088;-77
2023/12/14 00:23:20;;;;;;;8.32;4.60;;;;;;;5.62;100.00;99783.03;5180311;28;20022;-76
2023/12/14 00:25:51;;;;;;;7.32;4.63;;;;;;;5.63;100.00;99785.59;5177356;28;20041;-74
2023/12/14 00:28:22;;;;;;;9.07;4.38;;;;;;;5.58;100.00;99781.41;5177054;28;20535;-77
2023/12/14 00:30:52;;;;;;;9.00;4.53;;;;;;;5.46;100.00;99789.53;5179009;28;20030;-77
2023/12/14 00:33:23;;;;;;;8.73;4.63;;;;;;;5.44;100.00;99799.09;5180338;28;20076;-76
2023/12/14 00:35:53;;;;;;;9.07;4.82;;;;;;;5.35;100.00;99798.47;5180988;28;20045;-77
2023/12/14 00:38:23;;;;;;;8.90;4.53;;;;;;;5.23;100.00;99807.44;5178285;28;20072;-74
2023/12/14 00:40:54;;;;;;;10.00;4.80;;;;;;;5.28;100.00;99808.16;5181575;28;20025;-76
2023/12/14 00:43:24;;;;;;;11.43;4.82;;;;;;;5.27;100.00;99822.00;5181939;28;20030;-74
2023/12/14 00:45:54;;;;;;;11.27;5.13;;;;;;;5.16;100.00;99824.00;5169050;28;20069;-76
2023/12/14 00:48:25;;;;;;;9.95;5.22;;;;;;;5.16;100.00;99828.34;5178680;28;20032;-74
2023/12/14 00:50:55;;;;;;;10.07;5.28;;;;;;;5.20;100.00;99828.25;5183626;28;20029;-75
2023/12/14 00:53:25;;;;;;;10.77;5.28;;;;;;;5.29;100.00;99835.75;5181666;28;20427;-75
2023/12/14 00:55:56;;;;;;;13.85;5.40;;;;;;;5.05;100.00;99831.22;5180796;28;20034;-77
2023/12/14 00:58:26;;;;;;;14.85;5.10;;;;;;;5.10;100.00;99850.06;5179868;28;20026;-77
2023/12/14 01:00:56;;;;;;;10.85;5.47;;;;;;;5.13;100.00;99860.34;5180934;28;20385;-76
2023/12/14 01:03:26;;;;;;;13.02;5.35;;;;;;;5.12;100.00;99863.81;5177985;28;20138;-76
2023/12/14 01:05:57;;;;;;;10.48;5.07;;;;;;;5.06;100.00;99869.16;5165766;28;20029;-76
2023/12/14 01:08:27;;;;;;;10.88;5.50;;;;;;;5.04;100.00;99870.94;5181607;28;20029;-76
2023/12/14 01:10:57;;;;;;;10.00;5.50;;;;;;;5.10;100.00;99868.19;5187788;28;20037;-77
2023/12/14 01:13:28;;;;;;;10.35;5.63;;;;;;;5.14;100.00;99877.59;5183514;28;20241;-77
2023/12/14 01:15:58;;;;;;;11.75;5.57;;;;;;;5.08;100.00;99877.75;5191492;28;20095;-77
2023/12/14 01:18:28;;;;;;;9.30;5.30;;;;;;;4.97;100.00;99874.56;5185912;28;20041;-77
2023/12/14 01:20:59;;;;;;;8.73;4.78;;;;;;;5.10;100.00;99885.47;5191698;28;20025;-76
2023/12/14 01:23:29;;;;;;;10.73;5.55;;;;;;;5.05;100.00;99889.91;5185347;28;20029;-77
2023/12/14 01:25:59;;;;;;;9.93;5.03;;;;;;;5.06;100.00;99896.78;5188973;28;20112;-77
2023/12/14 01:28:29;;;;;;;10.43;5.13;;;;;;;5.00;100.00;99895.19;5182127;28;20072;-77
2023/12/14 01:31:00;;;;;;;11.48;5.35;;;;;;;5.11;100.00;99903.56;5179264;28;20092;-76
2023/12/14 01:33:30;;;;;;;10.88;5.30;;;;;;;5.05;100.00;99901.13;5184256;28;20022;-76
2023/12/14 01:36:00;;;;;;;11.05;5.68;;;;;;;4.99;100.00;99914.19;5185904;28;20047;-77
2023/12/14 01:38:30;;;;;;;10.60;5.70;;;;;;;5.01;100.00;99916.78;5188534;28;20242;-76
2023/12/14 01:41:01;;;;;;;10.05;5.40;;;;;;;5.07;100.00;99921.78;5185426;28;20034;-77
2023/12/14 01:43:31;;;;;;;14.40;5.43;;;;;;;5.18;100.00;99933.59;5186525;28;20118;-76
2023/12/14 01:46:01;;;;;;;8.73;5.05;;;;;;;5.17;100.00;99939.66;5184868;28;20423;-77
2023/12/14 01:48:32;;;;;;;11.88;5.55;;;;;;;5.26;100.00;99944.63;5176398;28;20264;-76
2023/12/14 01:51:02;;;;;;;10.18;5.28;;;;;;;5.30;100.00;99948.00;5181865;28;20076;-76
2023/12/14 01:53:33;;;;;;;11.18;5.28;;;;;;;5.23;100.00;99943.84;5175652;28;20188;-74
2023/12/14 01:56:03;;;;;;;9.13;5.18;;;;;;;5.14;100.00;99950.09;5181692;28;20116;-77
2023/12/14 01:58:33;;;;;;;11.45;5.25;;;;;;;5.09;100.00;99951.94;5183555;28;20475;-77
2023/12/14 02:01:10;;;;;;;8.40;4.78;;;;;;;5.07;100.00;99956.31;5179853;28;20052;-76
2023/12/14 02:03:49;;;;;;;9.82;5.70;;;;;;;4.96;100.00;99960.88;5161367;28;20036;-77
2023/12/14 02:06:20;;;;;;;11.20;4.80;;;;;;;5.01;100.00;99968.53;5179820;28;20040;-77
2023/12/14 02:08:50;;;;;;;10.35;5.13;;;;;;;4.98;100.00;99963.44;5184935;28;20033;-75
2023/12/14 02:11:21;;;;;;;15.75;5.82;;;;;;;5.02;100.00;99971.13;5183873;28;20325;-76
2023/12/14 02:13:51;;;;;;;9.88;5.65;;;;;;;4.92;100.00;99976.50;5182031;28;20034;-74
2023/12/14 02:16:21;;;;;;;9.75;5.07;;;;;;;4.94;100.00;99983.38;5182753;28;20026;-76
2023/12/14 02:18:52;;;;;;;8.27;4.55;;;;;;;4.99;100.00;99975.50;5181450;28;20025;-75
2023/12/14 02:21:22;;;;;;;10.38;5.22;;;;;;;4.89;100.00;99982.63;5183572;28;20142;-75
2023/12/14 02:23:52;;;;;;;11.10;5.43;;;;;;;4.90;100.00;99989.50;5176706;28;20039;-76
2023/12/14 02:26:23;;;;;;;9.95;5.00;;;;;;;4.96;100.00;99989.34;5181662;28;20491;-77
2023/12/14 02:28:53;;;;;;;10.15;5.13;;;;;;;4.98;100.00;99982.41;5185867;28;20115;-74
2023/12/14 02:31:23;;;;;;;11.27;5.38;;;;;;;5.02;100.00;99991.81;5180246;28;20523;-76
2023/12/14 02:33:53;;;;;;;10.75;5.28;;;;;;;5.02;100.00;99991.81;5180114;28;20022;-76
2023/12/14 02:36:24;;;;;;;11.13;5.30;;;;;;;5.05;100.00;99994.34;5178449;28;20026;-73
2023/12/14 02:38:54;;;;;;;9.57;4.85;;;;;;;5.00;100.00;100003.94;5174723;28;20033;-76
2023/12/14 02:41:24;;;;;;;6.57;4.22;;;;;;;4.99;100.00;100012.59;5180618;28;20160;-74
2023/12/14 02:43:55;;;;;;;9.57;4.25;;;;;;;4.97;100.00;100009.19;5180717;28;20112;-76
2023/12/14 02:46:25;;;;;;;10.15;4.40;;;;;;;4.79;100.00;100021.69;5185868;28;20555;-74
2023/12/14 02:48:55;;;;;;;7.30;4.30;;;;;;;4.90;100.00;100012.81;5181239;28;20036;-75
2023/12/14 02:51:26;;;;;;;8.20;4.38;;;;;;;4.94;100.00;100018.78;5179653;28;20531;-75
2023/12/14 02:53:57;;;;;;;8.68;4.07;;;;;;;4.93;100.00;100017.03;5182008;28;20030;-76
2023/12/14 02:56:28;;;;;;;8.15;4.13;;;;;;;4.79;100.00;100024.28;5182268;28;20022;-77
2023/12/14 02:58:58;;;;;;;8.73;4.78;;;;;;;4.75;100.00;100023.47;5182310;28;20072;-77
2023/12/14 03:01:28;;;;;;;8.23;4.55;;;;;;;4.70;100.00;100025.31;5178007;28;20058;-77
2023/12/14 03:03:58;;;;;;;8.43;4.22;;;;;;;4.73;100.00;100027.84;5182127;28;20495;-77
2023/12/14 03:06:29;;;;;;;7.60;4.20;;;;;;;4.75;100.00;100031.25;5177226;28;20029;-76
2023/12/14 03:09:00;;;;;;;7.00;4.10;;;;;;;4.70;100.00;100027.91;5179504;28;20116;-76
2023/12/14 03:11:30;;;;;;;8.13;3.70;;;;;;;4.59;100.00;100031.56;5179198;28;20018;-76
2023/12/14 03:14:00;;;;;;;10.57;4.90;;;;;;;4.57;100.00;100033.34;5182016;28;20511;-76
2023/12/14 03:16:31;;;;;;;6.80;3.90;;;;;;;4.60;100.00;100033.31;5181366;28;20033;-77
2023/12/14 03:19:01;;;;;;;7.43;4.13;;;;;;;4.63;100.00;100034.06;5182006;28;20458;-76
2023/12/14 03:21:31;;;;;;;8.68;4.03;;;;;;;4.69;100.00;100043.44;5180467;28;20037;-77
2023/12/14 03:24:02;;;;;;;7.03;4.10;;;;;;;4.77;100.00;100039.81;5177404;28;20034;-76
2023/12/14 03:26:33;;;;;;;5.95;3.65;;;;;;;4.77;100.00;100047.59;5180730;28;20030;-76
2023/12/14 03:29:03;;;;;;;6.82;3.55;;;;;;;4.81;100.00;100056.97;5183112;28;20034;-77
2023/12/14 03:31:35;;;;;;;6.88;3.92;;;;;;;4.69;100.00;100054.66;5180484;28;20053;-77
2023/12/14 03:34:05;;;;;;;9.32;4.03;;;;;;;4.73;100.00;100066.66;5180765;28;20476;-77
2023/12/14 03:36:35;;;;;;;6.93;4.13;;;;;;;4.81;100.00;100062.16;5181314;28;20021;-76
2023/12/14 03:39:06;;;;;;;7.70;3.90;;;;;;;4.76;100.00;100064.00;5180191;28;20025;-77
2023/12/14 03:41:36;;;;;;;5.95;3.80;;;;;;;4.65;100.00;100073.69;5181838;28;20364;-77
2023/12/14 03:44:07;;;;;;;7.13;3.92;;;;;;;4.77;100.00;100073.47;5167819;28;20037;-77
2023/12/14 03:46:37;;;;;;;7.20;3.55;;;;;;;4.69;100.00;100072.78;5181955;28;20071;-76
2023/12/14 03:49:08;;;;;;;6.68;3.88;;;;;;;4.74;100.00;100081.31;5181568;28;20656;-76
2023/12/14 03:51:40;;;;;;;10.20;4.53;;;;;;;4.62;100.00;100083.28;5181716;28;20044;-77
2023/12/14 03:54:10;;;;;;;8.55;3.85;;;;;;;4.81;100.00;100085.47;5179838;28;20036;-76
2023/12/14 03:56:40;;;;;;;6.63;3.53;;;;;;;4.87;100.00;100090.53;5182878;28;20021;-77
2023/12/14 03:59:10;;;;;;;6.80;3.35;;;;;;;4.79;100.00;100091.56;5182585;28;20033;-76
2023/12/14 04:01:41;;;;;;;6.72;3.20;;;;;;;4.76;100.00;100097.66;5181370;28;20558;-77
2023/12/14 04:04:11;;;;;;;4.93;2.50;;;;;;;4.85;100.00;100105.25;5182417;28;20036;-76
2023/12/14 04:06:41;;;;;;;5.13;2.55;;;;;;;4.73;100.00;100104.59;5179861;28;20022;-76
2023/12/14 04:09:12;;;;;;;4.30;2.50;;;;;;;4.68;100.00;100104.72;5180544;28;20064;-76
2023/12/14 04:11:42;;;;;;;6.00;2.35;;;;;;;4.77;100.00;100108.88;5182339;28;20033;-77
2023/12/14 04:14:12;;;;;;;4.30;2.30;;;;;;;4.71;100.00;100115.00;5184470;28;20045;-75
2023/12/14 04:16:43;;;;;;;4.47;2.40;;;;;;;4.73;100.00;100118.41;5184218;28;21319;-75
2023/12/14 04:19:13;;;;;;;4.00;2.47;;;;;;;4.77;100.00;100126.97;5188743;28;20052;-76
2023/12/14 04:21:43;;;;;;;4.55;2.42;;;;;;;4.73;100.00;100139.13;5182408;28;20567;-77
2023/12/14 04:24:13;;;;;;;5.30;2.50;;;;;;;4.70;100.00;100138.31;5187819;28;20033;-77
2023/12/14 04:26:44;;;;;;;4.07;2.45;;;;;;;4.60;100.00;100142.81;5188677;28;20033;-76
2023/12/14 04:29:15;;;;;;;4.55;2.97;;;;;;;4.69;100.00;100150.41;5186297;28;20033;-77
2023/12/14 04:31:45;;;;;;;5.60;3.22;;;;;;;4.58;100.00;100157.53;5176515;28;20590;-77
2023/12/14 04:34:15;;;;;;;9.77;3.33;;;;;;;4.60;100.00;100153.16;5188137;28;20495;-76
2023/12/14 04:36:46;;;;;;;5.25;3.30;;;;;;;4.51;100.00;100163.69;5183711;28;20526;-76
2023/12/14 04:39:16;;;;;;;7.13;3.60;;;;;;;4.57;100.00;100155.81;5186537;28;20040;-77
2023/12/14 04:41:47;;;;;;;6.85;3.13;;;;;;;4.49;100.00;100170.59;5180181;28;20153;-77
2023/12/14 04:44:17;;;;;;;7.55;3.55;;;;;;;4.49;100.00;100165.44;5182079;28;20026;-76
2023/12/14 04:46:50;;;;;;;6.13;3.35;;;;;;;4.56;100.00;100163.59;5185200;28;20163;-76
2023/12/14 04:49:21;;;;;;;6.85;3.40;;;;;;;4.58;100.00;100172.16;5182368;28;20025;-77
2023/12/14 04:51:51;;;;;;;6.38;3.92;;;;;;;4.51;100.00;100168.88;5184710;28;20395;-77
2023/12/14 04:54:22;;;;;;;6.88;3.20;;;;;;;4.50;100.00;100189.59;5185229;28;20120;-77
2023/12/14 04:56:52;;;;;;;7.55;3.08;;;;;;;4.57;100.00;100189.44;5183905;28;20526;-77
2023/12/14 04:59:22;;;;;;;5.75;3.40;;;;;;;4.50;100.00;100193.00;5187180;28;20285;-78
2023/12/14 05:01:52;;;;;;;6.35;3.45;;;;;;;4.46;100.00;100201.72;5186545;28;20045;-78
2023/12/14 05:04:23;;;;;;;6.03;3.60;;;;;;;4.53;100.00;100207.63;5186538;28;20068;-78
2023/12/14 05:06:54;;;;;;;7.10;3.60;;;;;;;4.50;100.00;100208.53;5186392;28;20487;-78
2023/12/14 05:09:24;;;;;;;6.78;3.63;;;;;;;4.58;100.00;100221.34;5183555;28;20571;-75
2023/12/14 05:11:54;;;;;;;10.27;3.95;;;;;;;4.48;100.00;100215.47;5185771;28;20121;-78
2023/12/14 05:14:26;;;;;;;9.13;4.07;;;;;;;4.58;100.00;100218.75;5186219;28;20704;-75
2023/12/14 05:16:57;;;;;;;5.97;3.13;;;;;;;4.55;100.00;100221.41;5184401;28;20515;-79
2023/12/14 05:19:27;;;;;;;5.45;3.22;;;;;;;4.57;100.00;100223.09;5184054;28;20037;-76
2023/12/14 05:21:57;;;;;;;5.32;3.17;;;;;;;4.56;100.00;100229.13;5187825;28;20529;-77
2023/12/14 05:24:28;;;;;;;5.60;2.80;;;;;;;4.52;100.00;100227.50;5185423;28;20041;-76
2023/12/14 05:26:58;;;;;;;5.63;2.70;;;;;;;4.56;100.00;100231.72;5186473;28;20379;-78
2023/12/14 05:29:28;;;;;;;6.07;2.53;;;;;;;4.47;100.00;100244.81;5185443;28;20030;-77
2023/12/14 05:31:59;;;;;;;5.10;2.70;;;;;;;4.60;100.00;100241.13;5187060;28;20104;-78
2023/12/14 05:34:29;;;;;;;5.07;2.72;;;;;;;4.67;100.00;100244.47;5179947;28;20025;-78
2023/12/14 05:36:59;;;;;;;4.28;2.58;;;;;;;4.52;100.00;100255.94;5171060;28;20164;-74
2023/12/14 05:39:29;;;;;;;4.25;2.50;;;;;;;4.48;100.00;100259.44;5175842;28;20452;-78
2023/12/14 05:42:00;;;;;;;4.63;2.67;;;;;;;4.60;100.00;100251.50;5180082;28;20025;-77
2023/12/14 05:44:31;;;;;;;7.95;3.55;;;;;;;4.62;100.00;100264.41;5184178;28;20030;-78
2023/12/14 05:47:01;;;;;;;5.32;3.35;;;;;;;4.62;100.00;100267.84;5187334;28;20089;-77
2023/12/14 05:49:31;;;;;;;6.97;3.15;;;;;;;4.50;100.00;100273.19;5183235;28;20313;-78
2023/12/14 05:52:02;;;;;;;7.65;4.28;;;;;;;4.61;100.00;100281.66;5186281;28;20072;-78
2023/12/14 05:54:32;;;;;;;6.78;4.05;;;;;;;4.67;100.00;100278.97;5184325;28;20025;-78
2023/12/14 05:57:03;;;;;;;7.45;4.43;;;;;;;4.54;100.00;100277.47;5186399;28;20030;-78
2023/12/14 05:59:33;;;;;;;8.50;4.75;;;;;;;4.58;100.00;100291.19;5186474;28;20036;-78
2023/12/14 06:02:04;;;;;;;8.55;4.60;;;;;;;4.54;100.00;100292.13;5186175;28;20548;-78
2023/12/14 06:04:35;;;;;;;7.25;4.47;;;;;;;4.54;100.00;100298.19;5184436;28;20116;-77
2023/12/14 06:07:05;;;;;;;8.70;4.47;;;;;;;4.51;100.00;100299.94;5186742;28;20306;-78
2023/12/14 06:09:35;;;;;;;8.98;5.32;;;;;;;4.52;100.00;100307.69;5181080;28;20705;-77
2023/12/14 06:12:06;;;;;;;8.40;4.93;;;;;;;4.53;100.00;100306.81;5183437;28;20083;-78
2023/12/14 06:14:36;;;;;;;8.60;5.32;;;;;;;4.58;100.00;100312.75;5184960;28;20029;-78
2023/12/14 06:17:06;;;;;;;10.95;5.55;;;;;;;4.52;100.00;100310.28;5180696;28;20030;-78
2023/12/14 06:19:37;;;;;;;9.00;5.43;;;;;;;4.55;100.00;100312.81;5173792;28;20028;-78
2023/12/14 06:22:07;;;;;;;10.05;5.68;;;;;;;4.50;100.00;100319.78;5186372;28;20487;-78
2023/12/14 06:24:37;;;;;;;11.52;6.55;;;;;;;4.57;100.00;100329.16;5186653;28;20079;-78
2023/12/14 06:27:08;;;;;;;12.35;6.43;;;;;;;4.55;100.00;100328.34;5186061;28;20045;-78
2023/12/14 06:29:38;;;;;;;11.55;6.18;;;;;;;4.50;100.00;100322.34;5186308;28;20109;-78
2023/12/14 06:32:08;;;;;;;9.00;5.60;;;;;;;4.51;100.00;100329.28;5184012;28;20023;-78
2023/12/14 06:34:39;;;;;;;12.05;5.65;;;;;;;4.40;100.00;100325.97;5185410;28;20029;-78
2023/12/14 06:37:10;;;;;;;10.32;5.22;;;;;;;4.46;100.00;100333.63;5186833;28;20462;-75
2023/12/14 06:39:41;;;;;;;10.02;5.50;;;;;;;4.35;100.00;100326.91;5181272;28;20399;-78
2023/12/14 06:42:11;;;;;;;9.70;5.55;;;;;;;4.37;100.00;100330.34;5174663;28;20025;-78
2023/12/14 06:44:42;;;;;;;9.50;5.80;;;;;;;4.55;100.00;100336.09;5186137;28;20033;-77
2023/12/14 06:47:13;;;;;;;9.25;5.22;;;;;;;4.55;100.00;100341.28;5186237;28;20120;-78
2023/12/14 06:49:43;;;;;;;12.13;5.30;;;;;;;4.45;100.00;100355.22;5184653;28;20076;-77
2023/12/14 06:52:14;;;;;;;10.32;5.60;;;;;;;4.56;100.00;100352.47;5181753;28;20381;-77
2023/12/14 06:54:44;;;;;;;9.52;5.50;;;;;;;4.40;100.00;100366.50;5184199;28;20037;-78
2023/12/14 06:57:14;;;;;;;10.13;5.80;;;;;;;4.49;100.00;100356.88;5184461;28;20045;-78
2023/12/14 06:59:45;;;;;;;10.65;5.68;;;;;;;4.49;100.00;100371.56;5184424;28;20086;-78
2023/12/14 07:02:15;;;;;;;10.65;5.07;;;;;;;4.54;100.00;100365.44;5184352;28;20491;-78
2023/12/14 07:04:45;;;;;;;9.10;5.03;;;;;;;4.46;100.00;100367.28;5181158;28;20121;-78
2023/12/14 07:07:15;;;;;;;10.70;6.05;;;;;;;4.44;100.00;100373.38;5183976;28;20029;-78
2023/12/14 07:09:46;;;;;;;9.25;5.65;;;;;;;4.45;100.00;100375.06;5181176;28;20040;-78
2023/12/14 07:12:16;;;;;;;8.30;4.78;;;;;;;4.50;100.00;100379.28;5179482;28;20386;-78
2023/12/14 07:14:46;;;;;;;9.82;5.38;;;;;;;4.44;100.00;100384.56;5182904;28;20033;-78
2023/12/14 07:17:17;;;;;;;8.68;5.18;;;;;;;4.28;100.00;100383.06;5183737;28;20029;-78
2023/12/14 07:19:47;;;;;;;8.55;5.32;;;;;;;4.36;100.00;100391.56;5182466;28;20169;-77
2023/12/14 07:22:17;;;;;;;9.43;4.68;;;;;;;4.39;100.00;100396.69;5183943;28;20087;-78
2023/12/14 07:24:48;;;;;;;8.38;5.07;;;;;;;4.37;100.00;100406.22;5183241;28;20054;-77
2023/12/14 07:27:18;;;;;;;8.55;4.97;;;;;;;4.41;100.00;100413.06;5185456;28;20482;-77
2023/12/14 07:29:49;;;;;;;8.40;4.90;;;;;;;4.36;100.00;100420.03;5182210;28;20121;-77
2023/12/14 07:32:19;;;;;;;10.07;4.93;;;;;;;4.28;100.00;100418.41;5183485;28;20661;-75
2023/12/14 07:34:49;;;;;;;10.65;5.00;;;;;;;4.42;100.00;100426.81;5181504;28;20053;-78
2023/12/14 07:37:19;;;;;;;9.02;5.30;;;;;;;4.48;100.00;100427.59;5184524;28;20034;-75
2023/12/14 07:39:50;;;;;;;9.02;5.20;;;;;;;4.48;100.00;100437.94;5181937;28;20026;-77
2023/12/14 07:42:20;;;;;;;13.43;5.82;;;;;;;4.49;100.00;100452.59;5181981;28;20515;-75
2023/12/14 07:44:50;;;;;;;8.30;5.15;;;;;;;4.52;100.00;100444.81;5183046;28;20029;-78
2023/12/14 07:47:21;;;;;;;9.75;5.20;;;;;;;4.54;100.00;100442.19;5183608;28;20030;-75
2023/12/14 07:49:51;;;;;;;9.05;5.40;;;;;;;4.38;100.00;100451.91;5184576;28;20096;-78
2023/12/14 07:52:21;;;;;;;11.50;6.00;;;;;;;4.47;100.00;100446.59;5187505;28;20511;-75
2023/12/14 07:54:51;;;;;;;10.98;5.38;;;;;;;4.46;100.00;100452.66;5187143;28;20018;-78
2023/12/14 07:57:23;;;;;;;11.10;5.53;;;;;;;4.52;100.00;100455.19;5188023;28;20577;-75
2023/12/14 07:59:54;;;;;;;9.07;5.60;;;;;;;4.31;100.00;100460.59;5188957;28;20018;-78
2023/12/14 08:02:24;;;;;;;9.48;5.22;;;;;;;4.55;100.00;100464.59;5186663;28;20400;-75
2023/12/14 08:04:54;;;;;;;10.20;5.80;;;;;;;4.41;100.00;100462.22;5188330;28;20364;-78
2023/12/14 08:07:28;;;;;;;9.05;5.38;;;;;;;4.46;100.00;100469.91;5188558;28;20441;-75
2023/12/14 08:09:59;;;;;;;8.85;5.32;;;;;;;4.45;100.00;100474.22;5187709;28;20033;-78
2023/12/14 08:12:30;;;;;;;10.27;5.93;;;;;;;4.60;100.00;100474.03;5186357;28;20026;-76
2023/12/14 08:15:00;;;;;;;8.48;5.22;;;;;;;4.50;100.00;100484.50;5190576;28;20088;-78
2023/12/14 08:17:30;;;;;;;9.30;5.72;;;;;;;4.54;100.00;100481.88;5187049;28;20387;-77
2023/12/14 08:20:01;;;;;;;11.25;6.30;;;;;;;4.63;100.00;100484.34;5187136;28;20064;-78
2023/12/14 08:22:31;;;;;;;11.30;6.05;;;;;;;4.59;100.00;100489.56;5186450;28;20022;-78
2023/12/14 08:25:03;;;;;;;10.77;5.35;;;;;;;4.71;100.00;100495.44;5189406;28;20055;-78
2023/12/14 08:27:34;;;;;;;8.88;5.25;;;;;;;4.62;100.00;100505.91;5186921;28;20112;-78
2023/12/14 08:30:05;;;;;;;8.65;4.78;;;;;;;4.60;100.00;100502.50;5187289;28;20104;-75
2023/12/14 08:32:35;;;;;;;9.30;5.07;;;;;;;4.64;100.00;100506.75;5186621;28;20022;-78
2023/12/14 08:35:06;;;;;;;8.55;5.32;;;;;;;4.65;100.00;100513.63;5188853;28;20052;-78
2023/12/14 08:37:36;;;;;;;8.15;5.15;;;;;;;4.75;100.00;100516.94;5187510;28;20029;-78
2023/12/14 08:40:07;;;;;;;9.95;5.50;;;;;;;4.82;100.00;100519.44;5189109;28;20502;-78
2023/12/14 08:42:38;;;;;;;8.77;5.63;;;;;;;4.79;100.00;100529.00;5185929;28;20041;-77
2023/12/14 08:45:11;;;;;;;10.68;5.47;;;;;;;4.75;100.00;100537.66;5187430;28;20080;-78
2023/12/14 08:47:42;;;;;;;11.57;6.13;;;;;;;4.75;100.00;100545.41;5185648;28;20102;-78
2023/12/14 08:50:13;;;;;;;9.68;5.75;;;;;;;4.78;100.00;100560.94;5187533;28;20643;-78
2023/12/14 08:52:43;;;;;;;8.73;5.10;;;;;;;4.86;100.00;100561.69;5186351;28;20042;-78
2023/12/14 08:55:14;;;;;;;19.85;8.93;;;;;;;4.89;100.00;100565.09;5189169;28;20033;-78
2023/12/14 08:57:44;;;;;;;8.15;5.50;;;;;;;4.91;100.00;100568.53;5186397;28;20092;-78
2023/12/14 09:00:15;;;;;;;10.43;6.03;;;;;;;4.89;100.00;100572.00;5187876;28;20017;-78
2023/12/14 09:02:46;;;;;;;15.90;7.32;;;;;;;4.91;100.00;100572.81;5186937;28;20439;-78
2023/12/14 09:05:19;;;;;;;51.70;19.20;;;;;;;4.78;100.00;100574.72;5184296;28;20032;-78
2023/12/14 09:07:54;;;;;;;14.95;7.32;;;;;;;4.79;100.00;100588.53;5184928;28;20037;-78
2023/12/14 09:10:25;;;;;;;10.73;5.70;;;;;;;4.67;100.00;100592.09;5187386;28;20033;-75
2023/12/14 09:12:55;;;;;;;9.63;4.90;;;;;;;4.80;100.00;100590.25;5186111;28;20032;-78
2023/12/14 09:15:26;;;;;;;10.45;5.88;;;;;;;4.80;100.00;100603.19;5186502;28;20022;-77
2023/12/14 09:17:56;;;;;;;10.70;6.25;;;;;;;4.75;100.00;100598.06;5184147;28;20018;-78
2023/12/14 09:20:26;;;;;;;8.05;4.82;;;;;;;4.70;100.00;100604.16;5187361;28;20198;-77
2023/12/14 09:22:57;;;;;;;9.90;5.60;;;;;;;4.77;100.00;100614.44;5187750;28;20455;-77
2023/12/14 09:25:27;;;;;;;10.88;5.38;;;;;;;4.85;100.00;100610.03;5186801;28;20026;-78
2023/12/14 09:27:57;;;;;;;10.13;4.90;;;;;;;4.74;100.00;100609.28;5186874;28;20025;-78
2023/12/14 09:30:28;;;;;;;9.13;4.75;;;;;;;4.77;100.00;100617.03;5187895;28;20022;-77
2023/12/14 09:32:58;;;;;;;7.93;4.68;;;;;;;4.91;100.00;100627.19;5187824;28;20033;-78
2023/12/14 09:35:28;;;;;;;6.88;4.43;;;;;;;4.84;100.00;100623.81;5189271;28;20372;-78
2023/12/14 09:37:59;;;;;;;10.68;4.88;;;;;;;4.81;100.00;100631.63;5185370;28;20072;-78
2023/12/14 09:40:29;;;;;;;10.50;5.15;;;;;;;4.96;100.00;100635.78;5188928;28;20225;-78
2023/12/14 09:43:00;;;;;;;15.15;8.05;;;;;;;4.98;100.00;100645.25;5187691;28;20534;-78
2023/12/14 09:45:31;;;;;;;23.20;11.52;;;;;;;4.96;100.00;100647.00;5186868;28;20144;-76
2023/12/14 09:48:02;;;;;;;14.52;7.93;;;;;;;4.91;100.00;100648.78;5185013;28;20057;-78
2023/12/14 09:50:33;;;;;;;18.30;9.63;;;;;;;4.89;100.00;100654.84;5186191;28;20029;-78
2023/12/14 09:53:04;;;;;;;10.70;6.00;;;;;;;4.78;100.00;100654.97;5183412;28;20018;-78
2023/12/14 09:55:35;;;;;;;11.10;5.60;;;;;;;4.82;100.00;100656.66;5173615;28;20041;-75
2023/12/14 09:58:06;;;;;;;10.13;5.35;;;;;;;4.88;100.00;100664.38;5183412;28;20034;-76
2023/12/14 10:00:38;;;;;;;9.50;6.47;;;;;;;4.92;100.00;100673.81;5179872;28;20041;-77
2023/12/14 10:03:21;;;;;;;13.82;7.78;;;;;;;4.88;100.00;100666.94;5176663;28;20033;-78
2023/12/14 10:05:53;;;;;;;7.25;4.13;;;;;;;4.76;100.00;100674.84;5179043;28;20084;-77
2023/12/14 10:08:24;;;;;;;10.25;6.28;;;;;;;4.90;100.00;100678.13;5182784;28;20034;-77
2023/12/14 10:10:55;;;;;;;8.18;4.85;;;;;;;4.95;100.00;100684.13;5181141;28;20073;-78
2023/12/14 10:13:39;;;;;;;10.95;6.43;;;;;;;4.98;100.00;100691.84;5182359;28;20488;-76
2023/12/14 10:16:09;;;;;;;11.80;6.75;;;;;;;4.93;100.00;100679.81;5186971;28;20048;-78
2023/12/14 10:18:39;;;;;;;9.68;5.03;;;;;;;4.92;100.00;100691.94;5183791;28;20103;-77
2023/12/14 10:21:10;;;;;;;8.93;4.63;;;;;;;4.98;100.00;100680.66;5183418;28;20039;-78
2023/12/14 10:23:40;;;;;;;10.02;4.78;;;;;;;5.04;100.00;100683.16;5183961;28;20060;-77
2023/12/14 10:26:10;;;;;;;9.88;5.65;;;;;;;4.99;100.00;100697.91;5183613;28;20025;-78
2023/12/14 10:28:41;;;;;;;6.38;3.80;;;;;;;5.02;100.00;100690.97;5185257;28;20126;-78
2023/12/14 10:31:11;;;;;;;21.17;11.23;;;;;;;4.88;100.00;100692.84;5179895;28;20029;-78
2023/12/14 10:33:42;;;;;;;17.45;8.43;;;;;;;5.04;100.00;100699.56;5184413;28;20045;-78
2023/12/14 10:36:14;;;;;;;59.95;26.95;;;;;;;5.11;100.00;100703.78;5182968;28;20025;-78
2023/12/14 10:38:48;;;;;;;17.73;9.55;;;;;;;5.01;100.00;100699.56;5182256;28;20021;-78
2023/12/14 10:41:20;;;;;;;7.15;4.30;;;;;;;4.99;100.00;100701.31;5181823;28;20026;-76
2023/12/14 10:43:54;;;;;;;8.52;4.78;;;;;;;5.09;100.00;100702.94;5185781;28;20345;-78
2023/12/14 10:46:24;;;;;;;7.32;3.67;;;;;;;5.10;100.00;100703.78;5183176;28;20105;-75
2023/12/14 10:48:54;;;;;;;6.47;3.65;;;;;;;5.00;100.00;100708.22;5185480;28;20116;-79
2023/12/14 10:51:27;;;;;;;5.20;3.05;;;;;;;4.95;100.00;100709.16;5182166;28;20030;-76
2023/12/14 10:53:57;;;;;;;9.30;4.78;;;;;;;4.96;100.00;100711.72;5180905;28;20499;-77
2023/12/14 10:56:28;;;;;;;14.52;6.57;;;;;;;5.02;100.00;100711.69;5181526;28;20036;-78
2023/12/14 10:59:00;;;;;;;5.78;2.90;;;;;;;5.07;100.00;100720.25;5187333;28;20237;-78
2023/12/14 11:01:32;;;;;;;8.93;5.13;;;;;;;5.19;100.00;100722.66;5180585;28;20022;-78
2023/12/14 11:04:02;;;;;;;6.55;3.22;;;;;;;5.16;100.00;100729.66;5183377;28;20018;-77
2023/12/14 11:06:37;;;;;;;6.18;3.13;;;;;;;5.21;100.00;100730.44;5181124;28;20076;-75
2023/12/14 11:09:10;;;;;;;7.53;4.72;;;;;;;5.26;100.00;100737.28;5186068;28;20040;-78
2023/12/14 11:11:49;;;;;;;9.52;5.00;;;;;;;5.17;100.00;100737.38;5179646;28;20108;-75
2023/12/14 11:14:21;;;;;;;9.63;5.70;;;;;;;5.08;100.00;100742.69;5179269;28;20578;-78
2023/12/14 11:16:56;;;;;;;10.00;6.10;;;;;;;5.05;100.00;100747.03;5180542;28;20037;-78
2023/12/14 11:19:28;;;;;;;13.18;7.22;;;;;;;5.11;100.00;100750.41;5184038;28;20379;-78
2023/12/14 11:22:07;;;;;;;6.95;3.35;;;;;;;5.01;100.00;100753.13;5176253;28;20034;-78
2023/12/14 11:24:42;;;;;;;18.50;10.15;;;;;;;5.04;100.00;100748.78;5184691;28;20029;-78
2023/12/14 11:27:13;;;;;;;18.33;11.07;;;;;;;5.12;100.00;100753.88;5183414;28;20049;-78
2023/12/14 11:29:43;;;;;;;13.95;7.55;;;;;;;5.05;100.00;100757.38;5185626;28;20069;-78
2023/12/14 11:32:14;;;;;;;15.02;8.05;;;;;;;5.08;100.00;100755.63;5189848;28;20025;-78
2023/12/14 11:34:46;;;;;;;20.13;11.50;;;;;;;5.02;100.00;100760.88;5188399;28;20029;-77
2023/12/14 11:37:16;;;;;;;18.05;10.05;;;;;;;4.95;100.00;100766.97;5180987;28;20022;-78
2023/12/14 11:39:49;;;;;;;14.20;7.40;;;;;;;4.85;100.00;100769.69;5185137;28;20557;-78